createdAt,value
2022-08-07T00:02:40.629Z,95.53
2022-08-07T00:05:28.916Z,98.68
2022-08-07T00:08:16.515Z,102.28
2022-08-07T00:11:06.817Z,102.90
2022-08-07T00:13:53.788Z,102.43
2022-08-07T00:16:41.854Z,99.22
2022-08-07T00:20:00.012Z,102.88
2022-08-07T00:22:40.195Z,99.43
2022-08-07T00:25:37.185Z,97.95
2022-08-07T00:28:33.821Z,103.20
2022-08-07T00:31:21.259Z,100.32
2022-08-07T00:34:08.544Z,104.53
2022-08-07T00:36:56.250Z,103.35
2022-08-07T00:39:45.046Z,100.82
2022-08-07T00:42:34.103Z,103.93
2022-08-07T00:45:23.599Z,103.85
2022-08-07T00:48:12.225Z,104.50
2022-08-07T00:51:01.015Z,100.45
2022-08-07T00:53:50.630Z,100.47
2022-08-07T00:56:42.158Z,99.30
2022-08-07T00:59:35.303Z,98.15
2022-08-07T01:02:28.486Z,94.43
2022-08-07T01:05:19.189Z,98.10
2022-08-07T01:08:06.613Z,92.45
2022-08-07T01:10:56.701Z,94.55
2022-08-07T01:13:55.909Z,95.35
2022-08-07T01:16:47.133Z,94.70
2022-08-07T01:19:38.287Z,96.43
2022-08-07T01:22:29.119Z,93.18
2022-08-07T01:25:40.410Z,95.18
2022-08-07T01:28:24.319Z,96.13
2022-08-07T01:31:15.497Z,94.45
2022-08-07T01:34:05.974Z,96.13
2022-08-07T01:36:58.026Z,99.22
2022-08-07T01:39:46.709Z,95.90
2022-08-07T01:42:39.523Z,95.78
2022-08-07T01:45:43.557Z,97.63
2022-08-07T01:48:34.090Z,97.43
2022-08-07T01:51:58.561Z,94.78
2022-08-07T01:54:36.815Z,94.15
2022-08-07T01:57:28.772Z,94.70
2022-08-07T02:00:17.819Z,96.78
2022-08-07T02:03:12.186Z,94.60
2022-08-07T02:06:31.424Z,96.63
2022-08-07T02:09:51.713Z,93.35
2022-08-07T02:12:33.400Z,93.03
2022-08-07T02:15:26.334Z,93.25
2022-08-07T02:18:15.605Z,94.65
2022-08-07T02:21:07.411Z,95.75
2022-08-07T02:24:03.057Z,93.47
2022-08-07T02:26:51.142Z,93.85
2022-08-07T02:29:48.505Z,95.00
2022-08-07T02:32:42.630Z,94.90
2022-08-07T02:36:30.526Z,97.15
2022-08-07T02:38:58.721Z,101.45
2022-08-07T02:41:50.913Z,98.60
2022-08-07T02:44:48.154Z,99.40
2022-08-07T02:47:45.407Z,100.03
2022-08-07T02:50:42.620Z,97.25
2022-08-07T02:53:38.571Z,100.07
2022-08-07T02:56:29.327Z,98.80
2022-08-07T02:59:23.871Z,101.53
2022-08-07T03:02:15.151Z,103.18
2022-08-07T03:05:04.906Z,101.88
2022-08-07T03:08:05.053Z,99.75
2022-08-07T03:10:56.381Z,101.00
2022-08-07T03:13:49.462Z,102.10
2022-08-07T03:16:38.348Z,101.32
2022-08-07T03:19:29.122Z,99.13
2022-08-07T03:22:30.280Z,99.32
2022-08-07T03:25:21.078Z,101.45
2022-08-07T03:28:37.387Z,102.88
2022-08-07T03:31:43.565Z,98.18
2022-08-07T03:34:39.135Z,100.50
2022-08-07T03:37:32.492Z,99.13
2022-08-07T03:40:22.200Z,97.20
2022-08-07T03:43:13.895Z,99.07
2022-08-07T03:46:03.949Z,97.85
2022-08-07T03:49:03.005Z,100.45
2022-08-07T03:51:55.331Z,98.60
2022-08-07T03:54:54.603Z,100.25
2022-08-07T03:58:34.045Z,97.15
2022-08-07T04:00:52.657Z,99.70
2022-08-07T04:03:53.498Z,96.03
2022-08-07T04:06:43.655Z,91.90
2022-08-07T04:09:44.831Z,92.97
2022-08-07T04:12:35.204Z,93.30
2022-08-07T04:15:23.850Z,92.70
2022-08-07T04:18:57.491Z,95.20
2022-08-07T04:21:22.232Z,94.07
2022-08-07T04:24:30.879Z,94.57
2022-08-07T04:27:25.840Z,93.85
2022-08-07T04:30:21.432Z,92.32
2022-08-07T04:33:21.518Z,93.03
2022-08-07T04:36:10.373Z,92.43
2022-08-07T04:38:58.131Z,95.68
2022-08-07T04:41:50.443Z,94.80
2022-08-07T04:44:54.604Z,95.70
2022-08-07T04:48:06.047Z,92.28
2022-08-07T04:51:09.340Z,92.95
2022-08-07T04:54:33.580Z,95.15
2022-08-07T04:58:13.068Z,93.50
2022-08-07T05:04:06.975Z,91.05
2022-08-07T05:07:09.581Z,92.97
2022-08-07T05:10:29.229Z,95.28
2022-08-07T05:14:54.298Z,99.55
2022-08-07T05:16:43.800Z,97.28
2022-08-07T05:19:44.735Z,96.15
2022-08-07T05:22:36.485Z,96.32
2022-08-07T05:25:26.367Z,99.43
2022-08-07T05:28:26.792Z,102.13
2022-08-07T05:31:18.736Z,111.75
2022-08-07T05:34:11.184Z,118.78
2022-08-07T05:36:58.947Z,124.43
2022-08-07T05:40:16.687Z,125.95
2022-08-07T05:42:55.763Z,126.53
2022-08-07T05:45:46.572Z,130.07
2022-08-07T05:48:35.705Z,125.75
2022-08-07T05:51:46.583Z,120.80
2022-08-07T05:54:44.401Z,116.68
2022-08-07T05:57:42.911Z,118.45
2022-08-07T06:00:34.570Z,121.15
2022-08-07T06:03:23.785Z,121.65
2022-08-07T06:06:12.182Z,120.93
2022-08-07T06:09:05.372Z,125.65
2022-08-07T06:11:52.951Z,120.53
2022-08-07T06:14:40.006Z,123.00
2022-08-07T06:17:30.418Z,131.57
2022-08-07T06:20:25.575Z,135.93
2022-08-07T06:24:37.429Z,138.25
2022-08-07T06:26:33.667Z,140.63
2022-08-07T06:29:26.937Z,147.15
2022-08-07T06:35:10.522Z,147.95
2022-08-07T06:38:08.179Z,159.80
2022-08-07T06:40:59.307Z,162.13
2022-08-07T06:44:01.348Z,161.88
2022-08-07T06:47:09.897Z,165.68
2022-08-07T06:49:59.125Z,173.13
2022-08-07T06:52:53.137Z,168.50
2022-08-07T06:56:00.537Z,178.10
2022-08-07T07:00:13.437Z,171.18
2022-08-07T07:01:58.796Z,169.32
2022-08-07T07:04:54.988Z,158.50
2022-08-07T07:07:59.668Z,160.55
2022-08-07T07:10:56.548Z,158.40
2022-08-07T07:13:57.439Z,161.98
2022-08-07T07:16:53.497Z,165.25
2022-08-07T07:19:57.391Z,162.05
2022-08-07T07:24:05.352Z,166.40
2022-08-07T07:26:32.717Z,168.35
2022-08-07T07:29:39.319Z,175.52
2022-08-07T07:32:24.079Z,176.30
2022-08-07T07:35:12.165Z,181.05
2022-08-07T07:38:04.655Z,173.75
2022-08-07T07:41:02.409Z,169.50
2022-08-07T07:44:17.795Z,168.23
2022-08-07T07:47:13.968Z,169.20
2022-08-07T07:50:33.020Z,174.43
2022-08-07T07:53:25.804Z,168.55
2022-08-07T07:56:14.149Z,169.18
2022-08-07T07:59:05.967Z,173.93
2022-08-07T08:02:03.812Z,167.80
2022-08-07T08:04:57.587Z,165.57
2022-08-07T08:07:59.858Z,152.43
2022-08-07T08:10:48.987Z,156.68
2022-08-07T08:13:53.781Z,149.07
2022-08-07T08:16:50.478Z,151.73
2022-08-07T08:20:20.037Z,145.48
2022-08-07T08:23:09.432Z,148.30
2022-08-07T08:26:19.206Z,149.27
2022-08-07T08:29:09.261Z,172.82
2022-08-07T08:32:04.660Z,179.30
2022-08-07T08:35:05.885Z,173.52
2022-08-07T08:38:04.883Z,176.55
2022-08-07T08:41:10.668Z,179.30
2022-08-07T08:44:44.591Z,176.40
2022-08-07T08:47:47.412Z,180.02
2022-08-07T08:54:02.064Z,178.65
2022-08-07T08:56:52.726Z,188.65
2022-08-07T09:00:01.674Z,173.55
2022-08-07T09:03:16.032Z,181.13
2022-08-07T09:06:16.804Z,183.05
2022-08-07T09:09:33.031Z,180.68
2022-08-07T09:12:56.079Z,179.70
2022-08-07T09:16:24.390Z,180.73
2022-08-07T09:19:53.136Z,177.98
2022-08-07T09:24:54.740Z,175.25
2022-08-07T09:26:22.680Z,174.25
2022-08-07T09:30:01.766Z,182.48
2022-08-07T09:32:45.390Z,185.65
2022-08-07T09:36:01.300Z,197.80
2022-08-07T09:39:11.340Z,195.50
2022-08-07T09:42:23.149Z,203.10
2022-08-07T09:47:27.389Z,199.23
2022-08-07T09:50:02.604Z,194.07
2022-08-07T09:52:35.362Z,190.15
2022-08-07T09:56:04.586Z,199.88
2022-08-07T09:59:22.045Z,201.77
2022-08-07T10:02:34.528Z,189.38
2022-08-07T10:06:01.236Z,194.02
2022-08-07T10:09:34.320Z,207.88
2022-08-07T10:12:53.007Z,210.65
2022-08-07T10:15:44.644Z,214.40
2022-08-07T10:19:11.335Z,218.73
2022-08-07T10:22:17.384Z,222.32
2022-08-07T10:25:42.933Z,234.48
2022-08-07T10:28:49.353Z,227.07
2022-08-07T10:32:52.714Z,218.23
2022-08-07T10:35:56.744Z,208.55
2022-08-07T10:38:51.841Z,206.13
2022-08-07T10:45:01.306Z,208.55
2022-08-07T10:48:03.865Z,209.80
2022-08-07T10:50:56.149Z,207.98
2022-08-07T10:54:00.027Z,214.10
2022-08-07T10:57:46.234Z,219.18
2022-08-07T11:01:35.478Z,220.00
2022-08-07T11:04:59.516Z,214.50
2022-08-07T11:08:23.549Z,213.60
2022-08-07T11:11:45.880Z,206.40
2022-08-07T11:15:00.273Z,206.73
2022-08-07T11:17:57.162Z,206.30
2022-08-07T11:21:32.244Z,210.77
2022-08-07T11:24:24.161Z,220.65
2022-08-07T11:27:33.603Z,229.23
2022-08-07T11:31:08.788Z,224.85
2022-08-07T11:34:10.243Z,229.25
2022-08-07T11:37:12.095Z,223.77
2022-08-07T11:40:18.956Z,220.32
2022-08-07T11:43:15.582Z,220.30
2022-08-07T11:46:13.012Z,219.80
2022-08-07T11:50:11.553Z,224.45
2022-08-07T11:53:13.062Z,215.20
2022-08-07T11:56:35.230Z,209.77
2022-08-07T12:00:11.708Z,214.05
2022-08-07T12:02:52.617Z,226.52
2022-08-07T12:05:48.895Z,228.70
2022-08-07T12:09:23.385Z,220.13
2022-08-07T12:12:13.571Z,215.80
2022-08-07T12:15:17.141Z,215.80
2022-08-07T12:18:31.433Z,213.23
2022-08-07T12:22:35.722Z,210.68
2022-08-07T12:26:03.183Z,205.55
2022-08-07T12:28:49.725Z,217.82
2022-08-07T12:32:04.762Z,220.10
2022-08-07T12:34:56.253Z,216.82
2022-08-07T12:38:09.227Z,212.40
2022-08-07T12:40:57.752Z,210.52
2022-08-07T12:44:02.923Z,211.05
2022-08-07T12:47:50.223Z,204.82
2022-08-07T12:50:48.707Z,220.27
2022-08-07T12:54:38.364Z,221.30
2022-08-07T12:57:20.084Z,215.80
2022-08-07T13:00:21.050Z,213.32
2022-08-07T13:03:59.211Z,213.48
2022-08-07T13:07:02.088Z,213.02
2022-08-07T13:10:39.820Z,209.05
2022-08-07T13:13:47.946Z,221.73
2022-08-07T13:16:50.907Z,225.52
2022-08-07T13:19:59.800Z,225.38
2022-08-07T13:23:09.977Z,219.00
2022-08-07T13:26:18.269Z,212.85
2022-08-07T13:29:15.590Z,208.07
2022-08-07T13:32:31.652Z,203.30
2022-08-07T13:35:59.475Z,209.10
2022-08-07T13:39:13.136Z,225.05
2022-08-07T13:42:21.567Z,229.15
2022-08-07T13:46:06.628Z,229.10
2022-08-07T13:48:33.687Z,231.88
2022-08-07T13:51:28.020Z,225.73
2022-08-07T13:54:36.732Z,215.68
2022-08-07T13:57:37.659Z,214.07
2022-08-07T14:00:35.145Z,212.63
2022-08-07T14:04:05.280Z,213.68
2022-08-07T14:06:43.498Z,221.43
2022-08-07T14:10:01.297Z,230.65
2022-08-07T14:12:54.749Z,225.43
2022-08-07T14:15:44.590Z,218.93
2022-08-07T14:18:46.047Z,219.95
2022-08-07T14:22:03.033Z,216.40
2022-08-07T14:28:12.505Z,205.55
2022-08-07T14:30:57.065Z,204.68
2022-08-07T14:33:46.087Z,202.38
2022-08-07T14:36:34.561Z,200.55
2022-08-07T14:40:17.391Z,197.45
2022-08-07T14:42:32.676Z,201.65
2022-08-07T14:45:22.670Z,208.15
2022-08-07T14:48:19.683Z,209.77
2022-08-07T14:51:16.097Z,205.77
2022-08-07T14:54:30.638Z,208.85
2022-08-07T14:57:54.857Z,204.70
2022-08-07T15:00:29.988Z,204.30
2022-08-07T15:03:25.650Z,200.05
2022-08-07T15:09:59.630Z,193.00
2022-08-07T15:12:42.102Z,193.60
2022-08-07T15:15:52.790Z,195.25
2022-08-07T15:18:48.272Z,214.85
2022-08-07T15:25:15.314Z,223.70
2022-08-07T15:28:32.453Z,220.32
2022-08-07T15:31:57.998Z,217.70
2022-08-07T15:34:26.170Z,215.60
2022-08-07T15:37:16.728Z,208.45
2022-08-07T15:40:33.881Z,200.98
2022-08-07T15:43:33.146Z,201.48
2022-08-07T15:46:47.416Z,196.95
2022-08-07T15:50:05.768Z,196.13
2022-08-07T15:53:04.932Z,194.57
2022-08-07T15:56:02.524Z,197.48
2022-08-07T15:58:57.287Z,195.25
2022-08-07T16:02:02.058Z,194.90
2022-08-07T16:04:56.451Z,195.77
2022-08-07T16:08:32.925Z,195.93
2022-08-07T16:11:01.221Z,182.68
2022-08-07T16:13:58.754Z,187.55
2022-08-07T16:17:15.235Z,187.48
2022-08-07T16:20:33.140Z,185.85
2022-08-07T16:23:53.905Z,181.27
2022-08-07T16:27:03.365Z,183.30
2022-08-07T16:30:30.616Z,178.82
2022-08-07T16:34:01.834Z,181.52
2022-08-07T16:37:02.419Z,178.35
2022-08-07T16:40:32.105Z,180.43
2022-08-07T16:44:05.759Z,179.95
2022-08-07T16:47:16.036Z,178.90
2022-08-07T16:50:39.322Z,175.83
2022-08-07T16:54:06.154Z,171.27
2022-08-07T16:58:00.957Z,176.48
2022-08-07T17:01:07.972Z,172.48
2022-08-07T17:04:29.588Z,169.60
2022-08-07T17:07:55.729Z,170.07
2022-08-07T17:10:54.271Z,168.93
2022-08-07T17:14:19.145Z,167.63
2022-08-07T17:17:21.653Z,166.95
2022-08-07T17:20:41.705Z,162.27
2022-08-07T17:23:41.150Z,161.63
2022-08-07T17:26:49.841Z,161.98
2022-08-07T17:30:14.355Z,161.38
2022-08-07T17:34:09.065Z,158.95
2022-08-07T17:36:30.808Z,158.77
2022-08-07T17:39:58.188Z,160.80
2022-08-07T17:42:59.709Z,156.05
2022-08-07T17:45:58.843Z,156.82
2022-08-07T17:49:22.906Z,155.68
2022-08-07T17:52:30.761Z,157.75
2022-08-07T17:56:00.382Z,156.60
2022-08-07T17:58:50.578Z,157.05
2022-08-07T18:01:56.786Z,150.07
2022-08-07T18:05:20.882Z,152.80
2022-08-07T18:08:16.431Z,148.32
2022-08-07T18:12:19.374Z,151.10
2022-08-07T18:15:08.942Z,150.23
2022-08-07T18:18:44.900Z,148.50
2022-08-07T18:21:53.547Z,147.07
2022-08-07T18:25:01.653Z,143.85
2022-08-07T18:28:34.229Z,142.35
2022-08-07T18:31:40.882Z,141.57
2022-08-07T18:35:01.068Z,142.50
2022-08-07T18:38:56.987Z,140.35
2022-08-07T18:41:57.717Z,140.93
2022-08-07T18:45:44.123Z,140.50
2022-08-07T18:50:30.812Z,138.70
2022-08-07T18:52:38.305Z,138.57
2022-08-07T18:55:55.494Z,136.57
2022-08-07T18:59:05.777Z,136.60
2022-08-07T19:02:33.083Z,134.98
2022-08-07T19:05:16.017Z,137.80
2022-08-07T19:08:14.164Z,136.75
2022-08-07T19:11:34.865Z,135.90
2022-08-07T19:14:17.078Z,132.18
2022-08-07T19:18:01.067Z,133.45
2022-08-07T19:20:37.322Z,131.30
2022-08-07T19:23:58.811Z,130.20
2022-08-07T19:27:01.699Z,130.70
2022-08-07T19:31:03.181Z,128.02
2022-08-07T19:33:13.177Z,130.23
2022-08-07T19:36:04.110Z,129.68
2022-08-07T19:38:54.504Z,127.80
2022-08-07T19:42:07.995Z,127.82
2022-08-07T19:44:55.552Z,128.15
2022-08-07T19:47:48.187Z,124.35
2022-08-07T19:50:43.755Z,124.13
2022-08-07T19:54:30.947Z,125.63
2022-08-07T19:58:00.331Z,122.60
2022-08-07T20:00:08.869Z,123.05
2022-08-07T20:03:03.773Z,119.25
2022-08-07T20:06:03.090Z,121.30
2022-08-07T20:08:52.644Z,122.53
2022-08-07T20:12:22.487Z,119.82
2022-08-07T20:14:58.503Z,119.53
2022-08-07T20:18:01.418Z,120.43
2022-08-07T20:23:48.427Z,116.32
2022-08-07T20:26:50.153Z,117.30
2022-08-07T20:29:49.550Z,116.65
2022-08-07T20:32:46.730Z,116.07
2022-08-07T20:35:54.603Z,116.28
2022-08-07T20:39:00.275Z,117.65
2022-08-07T20:41:54.275Z,117.03
2022-08-07T20:44:49.513Z,117.82
2022-08-07T20:47:56.895Z,115.93
2022-08-07T20:50:45.544Z,115.28
2022-08-07T20:54:02.034Z,115.72
2022-08-07T20:56:45.905Z,111.55
2022-08-07T21:00:06.282Z,112.32
2022-08-07T21:02:59.862Z,111.05
2022-08-07T21:05:57.114Z,110.50
2022-08-07T21:09:14.227Z,109.15
2022-08-07T21:12:05.641Z,106.85
2022-08-07T21:15:07.186Z,108.88
2022-08-07T21:18:09.015Z,109.72
2022-08-07T21:21:05.671Z,107.25
2022-08-07T21:24:05.955Z,106.25
2022-08-07T21:27:14.658Z,106.88
2022-08-07T21:30:08.687Z,106.70
2022-08-07T21:33:15.032Z,108.93
2022-08-07T21:36:32.254Z,109.30
2022-08-07T21:39:47.221Z,109.30
2022-08-07T21:43:04.597Z,112.57
2022-08-07T21:46:09.794Z,108.90
2022-08-07T21:49:20.949Z,112.93
2022-08-07T21:52:16.860Z,113.03
2022-08-07T21:55:48.250Z,111.93
2022-08-07T21:59:01.557Z,109.72
2022-08-07T22:02:11.184Z,109.93
2022-08-07T22:05:03.479Z,107.30
2022-08-07T22:07:58.483Z,110.07
2022-08-07T22:10:51.014Z,106.53
2022-08-07T22:13:52.593Z,102.32
2022-08-07T22:16:56.348Z,106.03
2022-08-07T22:20:00.567Z,106.85
2022-08-07T22:23:13.024Z,103.90
2022-08-07T22:26:14.340Z,103.20
2022-08-07T22:29:13.731Z,102.78
2022-08-07T22:32:24.488Z,102.85
2022-08-07T22:35:11.828Z,102.18
2022-08-07T22:38:26.082Z,101.68
2022-08-07T22:42:02.448Z,99.82
2022-08-07T22:44:35.708Z,100.45
2022-08-07T22:47:44.239Z,100.18
2022-08-07T22:50:42.228Z,99.88
2022-08-07T22:54:07.000Z,98.57
2022-08-07T22:57:26.118Z,99.20
2022-08-07T23:00:28.745Z,97.77
2022-08-07T23:03:57.250Z,97.60
2022-08-07T23:07:30.172Z,93.15
2022-08-07T23:10:42.347Z,96.32
2022-08-07T23:14:10.812Z,94.15
2022-08-07T23:17:23.346Z,97.63
2022-08-07T23:20:40.548Z,96.28
2022-08-07T23:24:11.125Z,93.65
2022-08-07T23:27:16.751Z,93.15
2022-08-07T23:30:37.608Z,93.35
2022-08-07T23:34:23.629Z,90.47
2022-08-07T23:37:29.672Z,93.35
2022-08-07T23:40:39.830Z,93.25
2022-08-07T23:44:05.275Z,95.07
2022-08-07T23:47:30.878Z,91.00
2022-08-07T23:50:49.522Z,92.28
2022-08-07T23:54:06.233Z,92.07
2022-08-07T23:57:13.405Z,92.30
